createdAt,value
2022-08-26T00:01:44.774Z,101657.25
2022-08-26T00:04:12.609Z,101655.00
2022-08-26T00:06:42.555Z,101655.53
2022-08-26T00:09:13.680Z,101639.25
2022-08-26T00:11:43.079Z,101646.06
2022-08-26T00:14:09.906Z,101640.63
2022-08-26T00:16:36.976Z,101641.09
2022-08-26T00:19:08.478Z,101637.22
2022-08-26T00:21:35.484Z,101643.63
2022-08-26T00:24:04.528Z,101635.28
2022-08-26T00:26:31.079Z,101649.91
2022-08-26T00:28:57.633Z,101647.75
2022-08-26T00:31:24.220Z,101653.38
2022-08-26T00:33:50.835Z,101655.78
2022-08-26T00:36:20.073Z,101651.75
2022-08-26T00:38:48.157Z,101651.81
2022-08-26T00:41:15.118Z,101651.53
2022-08-26T00:43:47.113Z,101660.34
2022-08-26T00:46:19.642Z,101648.78
2022-08-26T00:48:50.097Z,101649.44
2022-08-26T00:51:29.803Z,101647.47
2022-08-26T00:54:03.892Z,101631.16
2022-08-26T00:56:42.337Z,101642.34
2022-08-26T00:59:11.733Z,101653.09
2022-08-26T01:01:41.275Z,101638.28
2022-08-26T01:04:09.740Z,101636.38
2022-08-26T01:06:36.658Z,101634.69
2022-08-26T01:09:04.439Z,101622.31
2022-08-26T01:11:32.818Z,101633.56
2022-08-26T01:14:02.717Z,101641.53
2022-08-26T01:16:29.899Z,101647.22
2022-08-26T01:19:02.968Z,101640.38
2022-08-26T01:21:46.517Z,101637.03
2022-08-26T01:24:13.863Z,101631.22
2022-08-26T01:26:43.118Z,101633.22
2022-08-26T01:29:14.956Z,101646.00
2022-08-26T01:31:55.419Z,101634.47
2022-08-26T01:34:30.939Z,101614.91
2022-08-26T01:37:03.400Z,101638.69
2022-08-26T01:39:33.662Z,101637.28
2022-08-26T01:42:03.244Z,101640.25
2022-08-26T01:44:35.379Z,101640.06
2022-08-26T01:47:02.702Z,101645.44
2022-08-26T01:49:34.464Z,101642.94
2022-08-26T01:52:05.132Z,101649.84
2022-08-26T01:54:33.291Z,101654.53
2022-08-26T01:57:01.333Z,101635.06
2022-08-26T01:59:30.299Z,101661.13
2022-08-26T02:01:57.368Z,101669.53
2022-08-26T02:04:27.159Z,101652.75
2022-08-26T02:06:54.626Z,101651.16
2022-08-26T02:09:23.597Z,101673.72
2022-08-26T02:11:52.520Z,101678.19
2022-08-26T02:14:26.830Z,101675.94
2022-08-26T02:16:55.397Z,101679.09
2022-08-26T02:19:29.413Z,101687.84
2022-08-26T02:21:58.639Z,101677.06
2022-08-26T02:24:28.196Z,101687.88
2022-08-26T02:26:57.709Z,101692.72
2022-08-26T02:29:47.964Z,101699.16
2022-08-26T02:32:18.497Z,101698.47
2022-08-26T02:34:46.557Z,101694.06
2022-08-26T02:37:13.454Z,101689.75
2022-08-26T02:39:41.706Z,101700.09
2022-08-26T02:42:08.847Z,101698.88
2022-08-26T02:44:36.318Z,101702.13
2022-08-26T02:47:03.164Z,101699.28
2022-08-26T02:49:31.844Z,101685.63
2022-08-26T02:52:01.991Z,101683.31
2022-08-26T02:54:28.850Z,101691.69
2022-08-26T02:56:56.326Z,101686.47
2022-08-26T02:59:24.291Z,101675.44
2022-08-26T03:01:51.863Z,101694.28
2022-08-26T03:04:19.086Z,101691.84
2022-08-26T03:06:52.842Z,101672.28
2022-08-26T03:09:19.829Z,101677.75
2022-08-26T03:11:47.435Z,101686.22
2022-08-26T03:14:14.105Z,101692.25
2022-08-26T03:16:40.818Z,101685.78
2022-08-26T03:19:09.344Z,101679.63
2022-08-26T03:21:37.375Z,101677.84
2022-08-26T03:24:05.164Z,101665.97
2022-08-26T03:26:31.807Z,101675.47
2022-08-26T03:29:17.039Z,101661.41
2022-08-26T03:31:44.114Z,101657.81
2022-08-26T03:34:14.156Z,101658.72
2022-08-26T03:36:41.656Z,101668.34
2022-08-26T03:39:08.447Z,101669.88
2022-08-26T03:41:36.726Z,101660.41
2022-08-26T03:44:05.909Z,101665.97
2022-08-26T03:46:33.930Z,101669.09
2022-08-26T03:49:02.260Z,101681.84
2022-08-26T03:51:29.239Z,101685.81
2022-08-26T03:53:56.135Z,101662.50
2022-08-26T03:56:23.801Z,101668.75
2022-08-26T03:58:50.972Z,101679.78
2022-08-26T04:01:17.888Z,101676.41
2022-08-26T04:04:00.042Z,101686.06
2022-08-26T04:06:32.348Z,101687.97
2022-08-26T04:09:04.300Z,101688.81
2022-08-26T04:11:34.220Z,101692.84
2022-08-26T04:14:04.330Z,101688.38
2022-08-26T04:16:31.968Z,101678.34
2022-08-26T04:18:59.083Z,101678.13
2022-08-26T04:21:27.445Z,101676.94
2022-08-26T04:23:54.824Z,101673.31
2022-08-26T04:26:22.689Z,101672.22
2022-08-26T04:28:51.725Z,101670.94
2022-08-26T04:31:19.083Z,101672.50
2022-08-26T04:33:49.773Z,101676.50
2022-08-26T04:36:16.538Z,101680.53
2022-08-26T04:38:43.245Z,101663.09
2022-08-26T04:41:14.830Z,101677.88
2022-08-26T04:43:42.351Z,101695.16
2022-08-26T04:46:11.394Z,101696.66
2022-08-26T04:48:41.018Z,101688.72
2022-08-26T04:51:08.611Z,101692.72
2022-08-26T04:53:36.826Z,101672.84
2022-08-26T04:56:03.950Z,101687.09
2022-08-26T04:58:31.642Z,101686.78
2022-08-26T05:00:58.511Z,101682.59
2022-08-26T05:03:30.326Z,101675.00
2022-08-26T05:05:58.312Z,101678.28
2022-08-26T05:08:25.284Z,101695.75
2022-08-26T05:10:56.245Z,101685.31
2022-08-26T05:13:26.228Z,101686.00
2022-08-26T05:15:53.346Z,101678.06
2022-08-26T05:18:23.232Z,101687.16
2022-08-26T05:20:54.015Z,101681.03
2022-08-26T05:23:23.010Z,101680.22
2022-08-26T05:25:55.802Z,101677.09
2022-08-26T05:28:26.919Z,101686.34
2022-08-26T05:30:54.894Z,101677.91
2022-08-26T05:33:22.263Z,101695.84
2022-08-26T05:35:49.424Z,101695.94
2022-08-26T05:38:19.442Z,101696.59
2022-08-26T05:40:52.826Z,101702.81
2022-08-26T05:43:20.269Z,101695.13
2022-08-26T05:45:49.568Z,101699.84
2022-08-26T05:48:22.824Z,101686.72
2022-08-26T05:50:53.253Z,101661.63
2022-08-26T05:53:21.975Z,101634.41
2022-08-26T05:55:51.062Z,101671.75
2022-08-26T05:58:20.893Z,101675.94
2022-08-26T06:01:02.846Z,101681.66
2022-08-26T06:03:31.606Z,101693.53
2022-08-26T06:05:58.474Z,101681.81
2022-08-26T06:08:25.409Z,101697.00
2022-08-26T06:10:59.964Z,101682.75
2022-08-26T06:13:28.089Z,101702.69
2022-08-26T06:16:00.001Z,101700.00
2022-08-26T06:18:32.748Z,101693.72
2022-08-26T06:20:59.733Z,101713.56
2022-08-26T06:23:47.296Z,101717.91
2022-08-26T06:26:15.954Z,101726.59
2022-08-26T06:28:45.486Z,101731.56
2022-08-26T06:31:13.376Z,101717.22
2022-08-26T06:33:40.263Z,101709.41
2022-08-26T06:36:07.295Z,101729.69
2022-08-26T06:38:34.772Z,101725.25
2022-08-26T06:41:03.126Z,101703.75
2022-08-26T06:43:29.789Z,101719.28
2022-08-26T06:46:05.082Z,101730.78
2022-08-26T06:48:32.198Z,101724.47
2022-08-26T06:51:04.342Z,101731.84
2022-08-26T06:53:30.897Z,101739.88
2022-08-26T06:55:57.826Z,101720.69
2022-08-26T06:58:24.551Z,101722.13
2022-08-26T07:00:51.310Z,101731.34
2022-08-26T07:03:18.385Z,101723.31
2022-08-26T07:05:45.037Z,101719.00
2022-08-26T07:08:12.040Z,101724.31
2022-08-26T07:10:39.066Z,101730.47
2022-08-26T07:13:07.972Z,101711.41
2022-08-26T07:15:36.164Z,101710.00
2022-08-26T07:18:03.102Z,101714.50
2022-08-26T07:20:29.731Z,101714.34
2022-08-26T07:22:58.895Z,101719.09
2022-08-26T07:25:25.964Z,101715.72
2022-08-26T07:27:54.241Z,101702.66
2022-08-26T07:30:21.628Z,101719.38
2022-08-26T07:32:48.378Z,101710.00
2022-08-26T07:35:15.047Z,101711.19
2022-08-26T07:37:42.830Z,101710.78
2022-08-26T07:40:10.176Z,101701.72
2022-08-26T07:42:36.830Z,101706.81
2022-08-26T07:45:04.252Z,101708.25
2022-08-26T07:47:31.023Z,101710.81
2022-08-26T07:49:58.292Z,101709.25
2022-08-26T07:52:27.611Z,101698.31
2022-08-26T07:54:56.982Z,101715.84
2022-08-26T07:57:24.505Z,101708.94
2022-08-26T07:59:51.855Z,101710.22
2022-08-26T08:02:21.062Z,101720.56
2022-08-26T08:04:47.822Z,101717.41
2022-08-26T08:07:14.475Z,101711.59
2022-08-26T08:09:41.086Z,101702.25
2022-08-26T08:12:07.969Z,101723.66
2022-08-26T08:14:41.087Z,101732.78
2022-08-26T08:17:08.649Z,101724.78
2022-08-26T08:19:36.667Z,101736.66
2022-08-26T08:22:05.259Z,101730.09
2022-08-26T08:24:44.621Z,101723.22
2022-08-26T08:27:11.269Z,101728.59
2022-08-26T08:29:38.863Z,101723.69
2022-08-26T08:32:05.695Z,101715.06
2022-08-26T08:34:38.360Z,101723.22
2022-08-26T08:37:08.682Z,101726.44
2022-08-26T08:39:37.337Z,101718.84
2022-08-26T08:42:29.389Z,101731.06
2022-08-26T08:44:59.886Z,101731.06
2022-08-26T08:47:34.538Z,101728.84
2022-08-26T08:50:19.710Z,101723.41
2022-08-26T08:53:00.291Z,101727.06
2022-08-26T08:55:32.708Z,101722.53
2022-08-26T08:58:07.850Z,101745.19
2022-08-26T09:00:47.645Z,101753.69
2022-08-26T09:03:36.167Z,101769.72
2022-08-26T09:06:03.832Z,101766.63
2022-08-26T09:08:35.200Z,101766.88
2022-08-26T09:11:03.583Z,101762.31
2022-08-26T09:13:31.805Z,101757.31
2022-08-26T09:16:13.947Z,101754.13
2022-08-26T09:18:54.646Z,101734.91
2022-08-26T09:21:23.680Z,101739.50
2022-08-26T09:23:54.980Z,101731.91
2022-08-26T09:26:25.950Z,101710.22
2022-08-26T09:28:57.375Z,101705.06
2022-08-26T09:31:35.952Z,101716.91
2022-08-26T09:34:24.020Z,101716.16
2022-08-26T09:36:51.415Z,101713.94
2022-08-26T09:39:24.113Z,101709.72
2022-08-26T09:42:20.666Z,101710.63
2022-08-26T09:45:04.502Z,101682.47
2022-08-26T09:47:41.502Z,101709.09
2022-08-26T09:50:28.688Z,101711.19
2022-08-26T09:53:16.519Z,101707.72
2022-08-26T09:55:50.319Z,101692.72
2022-08-26T09:58:34.583Z,101719.13
2022-08-26T10:01:08.182Z,101696.19
2022-08-26T10:03:38.039Z,101719.91
2022-08-26T10:06:23.397Z,101724.72
2022-08-26T10:08:54.917Z,101729.00
2022-08-26T10:11:35.142Z,101726.63
2022-08-26T10:14:11.488Z,101733.34
2022-08-26T10:16:49.027Z,101730.38
2022-08-26T10:19:21.561Z,101720.53
2022-08-26T10:21:57.709Z,101706.59
2022-08-26T10:24:48.995Z,101709.78
2022-08-26T10:27:37.859Z,101704.97
2022-08-26T10:30:12.582Z,101700.75
2022-08-26T10:32:45.544Z,101709.66
2022-08-26T10:35:15.063Z,101696.72
2022-08-26T10:37:51.352Z,101699.25
2022-08-26T10:40:24.988Z,101713.94
2022-08-26T10:43:21.371Z,101713.59
2022-08-26T10:45:52.886Z,101716.31
2022-08-26T10:48:35.461Z,101712.72
2022-08-26T10:51:04.459Z,101713.25
2022-08-26T10:54:01.531Z,101714.53
2022-08-26T10:56:48.514Z,101718.84
2022-08-26T10:59:14.972Z,101702.25
2022-08-26T11:01:56.368Z,101709.88
2022-08-26T11:04:35.404Z,101705.72
2022-08-26T11:07:33.102Z,101716.22
2022-08-26T11:10:19.915Z,101717.22
2022-08-26T11:12:57.196Z,101712.91
2022-08-26T11:15:28.152Z,101706.50
2022-08-26T11:18:00.884Z,101719.50
2022-08-26T11:20:27.843Z,101713.59
2022-08-26T11:22:56.373Z,101720.91
2022-08-26T11:25:31.002Z,101704.19
2022-08-26T11:28:00.868Z,101721.34
2022-08-26T11:30:38.573Z,101706.50
2022-08-26T11:33:08.224Z,101709.69
2022-08-26T11:35:37.334Z,101721.06
2022-08-26T11:38:15.701Z,101723.22
2022-08-26T11:40:42.614Z,101716.91
2022-08-26T11:43:21.187Z,101718.25
2022-08-26T11:45:59.686Z,101719.25
2022-08-26T11:48:26.307Z,101715.44
2022-08-26T11:50:58.302Z,101708.69
2022-08-26T11:53:26.150Z,101701.66
2022-08-26T11:55:55.200Z,101695.44
2022-08-26T11:58:24.140Z,101708.97
2022-08-26T12:00:58.346Z,101713.34
2022-08-26T12:03:40.321Z,101710.91
2022-08-26T12:08:57.993Z,101713.59
2022-08-26T12:11:31.094Z,101715.91
2022-08-26T12:14:19.848Z,101711.06
2022-08-26T12:16:47.065Z,101719.81
2022-08-26T12:19:32.934Z,101711.53
2022-08-26T12:22:07.958Z,101706.88
2022-08-26T12:24:35.445Z,101711.22
2022-08-26T12:27:15.883Z,101717.53
2022-08-26T12:29:42.947Z,101718.03
2022-08-26T12:32:17.911Z,101724.25
2022-08-26T12:34:47.816Z,101710.53
2022-08-26T12:37:15.549Z,101719.06
2022-08-26T12:39:44.425Z,101709.84
2022-08-26T12:42:15.733Z,101720.59
2022-08-26T12:44:53.335Z,101720.59
2022-08-26T12:47:44.316Z,101717.09
2022-08-26T12:50:21.283Z,101726.63
2022-08-26T12:52:57.545Z,101727.91
2022-08-26T12:55:29.003Z,101731.53
2022-08-26T12:58:30.084Z,101725.19
2022-08-26T13:00:58.204Z,101693.66
2022-08-26T13:03:35.238Z,101700.47
2022-08-26T13:06:20.870Z,101716.22
2022-08-26T13:08:49.332Z,101720.47
2022-08-26T13:11:25.676Z,101714.47
2022-08-26T13:13:57.544Z,101710.16
2022-08-26T13:16:25.412Z,101715.91
2022-08-26T13:18:55.898Z,101712.81
2022-08-26T13:21:28.989Z,101717.34
2022-08-26T13:24:38.586Z,101719.72
2022-08-26T13:27:06.628Z,101724.72
2022-08-26T13:29:33.664Z,101720.81
2022-08-26T13:32:00.650Z,101726.28
2022-08-26T13:34:30.169Z,101720.69
2022-08-26T13:36:57.920Z,101707.22
2022-08-26T13:39:25.850Z,101708.00
2022-08-26T13:41:53.217Z,101706.09
2022-08-26T13:44:20.241Z,101708.34
2022-08-26T13:46:46.867Z,101713.50
2022-08-26T13:49:14.149Z,101708.00
2022-08-26T13:51:40.838Z,101700.53
2022-08-26T13:54:08.120Z,101695.28
2022-08-26T13:56:35.307Z,101696.13
2022-08-26T13:59:02.177Z,101687.66
2022-08-26T14:01:30.928Z,101691.59
2022-08-26T14:03:58.078Z,101697.00
2022-08-26T14:06:25.283Z,101697.84
2022-08-26T14:08:51.987Z,101677.44
2022-08-26T14:11:19.161Z,101689.94
2022-08-26T14:13:45.712Z,101685.38
2022-08-26T14:16:24.636Z,101683.94
2022-08-26T14:18:51.635Z,101687.56
2022-08-26T14:21:19.183Z,101672.84
2022-08-26T14:23:46.177Z,101668.44
2022-08-26T14:26:21.422Z,101677.22
2022-08-26T14:28:58.013Z,101678.41
2022-08-26T14:31:26.911Z,101671.94
2022-08-26T14:33:53.876Z,101669.59
2022-08-26T14:36:31.275Z,101657.63
2022-08-26T14:39:04.939Z,101663.41
2022-08-26T14:41:33.235Z,101656.16
2022-08-26T14:44:07.955Z,101667.38
2022-08-26T14:46:45.873Z,101664.47
2022-08-26T14:49:13.025Z,101653.34
2022-08-26T14:51:41.025Z,101655.19
2022-08-26T14:54:12.359Z,101640.59
2022-08-26T14:56:49.098Z,101659.91
2022-08-26T14:59:21.282Z,101655.25
2022-08-26T15:01:48.301Z,101650.56
2022-08-26T15:04:15.693Z,101659.06
2022-08-26T15:06:42.518Z,101654.56
2022-08-26T15:09:09.241Z,101654.16
2022-08-26T15:11:35.890Z,101654.72
2022-08-26T15:14:02.848Z,101647.78
2022-08-26T15:16:29.783Z,101650.53
2022-08-26T15:18:56.941Z,101648.22
2022-08-26T15:21:24.176Z,101647.91
2022-08-26T15:23:52.236Z,101645.16
2022-08-26T15:26:20.285Z,101641.00
2022-08-26T15:28:47.320Z,101651.69
2022-08-26T15:31:14.121Z,101645.66
2022-08-26T15:33:40.941Z,101643.19
2022-08-26T15:36:08.709Z,101645.06
2022-08-26T15:38:41.341Z,101653.94
2022-08-26T15:41:09.334Z,101642.09
2022-08-26T15:43:37.681Z,101652.25
2022-08-26T15:46:05.017Z,101648.59
2022-08-26T15:48:31.939Z,101658.38
2022-08-26T15:51:00.874Z,101645.47
2022-08-26T15:53:30.220Z,101645.22
2022-08-26T15:55:58.691Z,101637.84
2022-08-26T15:58:26.934Z,101645.94
2022-08-26T16:00:55.163Z,101642.97
2022-08-26T16:03:22.551Z,101640.66
2022-08-26T16:05:50.143Z,101634.63
2022-08-26T16:08:17.540Z,101643.81
2022-08-26T16:10:50.361Z,101644.66
2022-08-26T16:13:19.491Z,101644.81
2022-08-26T16:15:48.070Z,101636.97
2022-08-26T16:18:15.638Z,101634.16
2022-08-26T16:21:12.628Z,101629.75
2022-08-26T16:23:39.024Z,101633.25
2022-08-26T16:26:14.372Z,101627.75
2022-08-26T16:28:41.297Z,101604.53
2022-08-26T16:31:10.748Z,101616.31
2022-08-26T16:33:40.606Z,101611.00
2022-08-26T16:36:08.486Z,101619.66
2022-08-26T16:38:35.696Z,101626.53
2022-08-26T16:41:02.549Z,101614.34
2022-08-26T16:43:29.492Z,101623.94
2022-08-26T16:45:56.217Z,101625.56
2022-08-26T16:48:23.766Z,101634.56
2022-08-26T16:50:51.437Z,101607.91
2022-08-26T16:53:19.260Z,101626.94
2022-08-26T16:55:50.709Z,101606.94
2022-08-26T16:58:18.125Z,101620.16
2022-08-26T17:00:45.350Z,101623.03
2022-08-26T17:03:12.451Z,101625.00
2022-08-26T17:05:40.187Z,101631.56
2022-08-26T17:08:07.166Z,101633.31
2022-08-26T17:10:33.831Z,101629.97
2022-08-26T17:13:01.113Z,101621.47
2022-08-26T17:15:27.838Z,101625.31
2022-08-26T17:17:55.420Z,101625.81
2022-08-26T17:20:23.969Z,101626.00
2022-08-26T17:22:53.967Z,101632.41
2022-08-26T17:25:31.683Z,101631.00
2022-08-26T17:27:59.421Z,101622.94
2022-08-26T17:30:27.029Z,101612.28
2022-08-26T17:32:56.345Z,101623.31
2022-08-26T17:35:23.651Z,101621.72
2022-08-26T17:37:50.535Z,101625.88
2022-08-26T17:40:20.479Z,101615.81
2022-08-26T17:42:48.145Z,101637.09
2022-08-26T17:45:16.137Z,101637.97
2022-08-26T17:47:43.463Z,101639.31
2022-08-26T17:50:13.599Z,101644.81
2022-08-26T17:52:41.085Z,101641.28
2022-08-26T17:55:10.686Z,101632.09
2022-08-26T17:57:40.635Z,101642.13
2022-08-26T18:00:16.164Z,101638.81
2022-08-26T18:02:43.548Z,101628.50
2022-08-26T18:05:12.397Z,101631.63
2022-08-26T18:07:43.601Z,101652.97
2022-08-26T18:10:13.513Z,101642.72
2022-08-26T18:12:41.004Z,101648.59
2022-08-26T18:15:09.437Z,101647.63
2022-08-26T18:17:36.547Z,101651.25
2022-08-26T18:20:03.152Z,101654.41
2022-08-26T18:22:30.107Z,101654.53
2022-08-26T18:24:59.101Z,101651.31
2022-08-26T18:27:26.349Z,101645.53
2022-08-26T18:29:52.948Z,101649.91
2022-08-26T18:32:19.624Z,101637.09
2022-08-26T18:34:46.223Z,101647.59
2022-08-26T18:37:14.400Z,101660.84
2022-08-26T18:39:41.764Z,101661.25
2022-08-26T18:42:08.889Z,101663.75
2022-08-26T18:44:36.017Z,101670.50
2022-08-26T18:47:02.763Z,101663.59
2022-08-26T18:49:29.378Z,101671.63
2022-08-26T18:51:56.042Z,101662.81
2022-08-26T18:54:22.971Z,101654.97
2022-08-26T18:56:49.685Z,101681.66
2022-08-26T18:59:17.982Z,101677.25
2022-08-26T19:01:45.388Z,101679.94
2022-08-26T19:04:15.430Z,101686.63
2022-08-26T19:06:43.592Z,101668.94
2022-08-26T19:09:11.766Z,101674.25
2022-08-26T19:11:42.929Z,101680.06
2022-08-26T19:14:13.649Z,101686.94
2022-08-26T19:16:43.466Z,101691.69
2022-08-26T19:19:11.194Z,101674.91
2022-08-26T19:21:38.819Z,101692.16
2022-08-26T19:24:12.249Z,101687.97
2022-08-26T19:26:39.116Z,101695.59
2022-08-26T19:29:06.146Z,101701.13
2022-08-26T19:31:33.463Z,101700.41
2022-08-26T19:34:00.305Z,101702.91
2022-08-26T19:36:28.068Z,101705.25
2022-08-26T19:38:56.554Z,101695.69
2022-08-26T19:41:37.023Z,101708.53
2022-08-26T19:44:11.050Z,101697.44
2022-08-26T19:49:10.319Z,101724.84
2022-08-26T19:51:37.020Z,101722.53
2022-08-26T19:54:04.303Z,101721.88
2022-08-26T19:56:31.333Z,101703.47
2022-08-26T19:58:58.338Z,101718.78
2022-08-26T20:01:25.130Z,101718.47
2022-08-26T20:03:51.899Z,101714.78
2022-08-26T20:06:20.128Z,101723.69
2022-08-26T20:08:48.054Z,101726.47
2022-08-26T20:11:19.061Z,101736.47
2022-08-26T20:13:47.894Z,101722.94
2022-08-26T20:16:16.092Z,101734.91
2022-08-26T20:19:03.222Z,101736.47
2022-08-26T20:21:34.103Z,101735.69
2022-08-26T20:24:05.173Z,101726.53
2022-08-26T20:26:34.586Z,101736.97
2022-08-26T20:29:01.553Z,101738.56
2022-08-26T20:31:28.632Z,101738.56
2022-08-26T20:33:55.724Z,101739.84
2022-08-26T20:36:26.772Z,101739.06
2022-08-26T20:38:55.065Z,101749.41
2022-08-26T20:41:25.367Z,101735.09
2022-08-26T20:43:53.186Z,101742.28
2022-08-26T20:46:24.124Z,101734.28
2022-08-26T20:48:52.738Z,101730.78
2022-08-26T20:51:20.099Z,101747.94
2022-08-26T20:53:46.914Z,101741.97
2022-08-26T20:56:15.083Z,101743.56
2022-08-26T20:58:42.321Z,101751.16
2022-08-26T21:01:21.294Z,101737.63
2022-08-26T21:03:50.196Z,101745.59
2022-08-26T21:06:16.894Z,101747.59
2022-08-26T21:08:43.485Z,101746.41
2022-08-26T21:11:12.054Z,101727.66
2022-08-26T21:14:01.254Z,101746.41
2022-08-26T21:16:25.939Z,101749.22
2022-08-26T21:18:52.938Z,101748.03
2022-08-26T21:21:19.860Z,101741.28
2022-08-26T21:23:52.142Z,101748.81
2022-08-26T21:26:19.674Z,101750.44
2022-08-26T21:28:46.819Z,101751.22
2022-08-26T21:31:18.207Z,101749.22
2022-08-26T21:33:45.469Z,101749.66
2022-08-26T21:36:13.837Z,101738.84
2022-08-26T21:38:41.658Z,101744.03
2022-08-26T21:41:20.195Z,101745.66
2022-08-26T21:43:49.024Z,101756.03
2022-08-26T21:46:19.169Z,101750.44
2022-08-26T21:48:51.289Z,101758.03
2022-08-26T21:51:21.264Z,101755.25
2022-08-26T21:53:49.157Z,101761.63
2022-08-26T21:56:17.879Z,101766.41
2022-08-26T21:58:45.315Z,101757.63
2022-08-26T22:01:16.417Z,101758.44
2022-08-26T22:03:46.835Z,101764.81
2022-08-26T22:06:18.829Z,101760.81
2022-08-26T22:08:45.413Z,101764.81
2022-08-26T22:11:12.398Z,101759.63
2022-08-26T22:13:40.467Z,101771.97
2022-08-26T22:16:07.608Z,101766.81
2022-08-26T22:18:35.203Z,101772.78
2022-08-26T22:21:05.598Z,101760.41
2022-08-26T22:23:32.400Z,101775.19
2022-08-26T22:26:00.096Z,101770.81
2022-08-26T22:28:27.010Z,101769.56
2022-08-26T22:30:54.216Z,101775.16
2022-08-26T22:33:20.812Z,101780.72
2022-08-26T22:35:50.588Z,101776.75
2022-08-26T22:38:17.929Z,101772.75
2022-08-26T22:40:51.763Z,101771.97
2022-08-26T22:43:19.400Z,101779.13
2022-08-26T22:45:48.277Z,101775.13
2022-08-26T22:48:18.098Z,101778.31
2022-08-26T22:50:46.409Z,101767.97
2022-08-26T22:53:13.918Z,101779.94
2022-08-26T22:55:40.629Z,101773.56
2022-08-26T22:58:07.959Z,101771.16
2022-08-26T23:00:34.592Z,101759.59
2022-08-26T23:03:02.104Z,101772.34
2022-08-26T23:05:29.676Z,101769.16
2022-08-26T23:07:56.792Z,101767.56
2022-08-26T23:10:23.867Z,101759.19
2022-08-26T23:12:52.384Z,101753.59
2022-08-26T23:15:20.818Z,101755.19
2022-08-26T23:17:47.949Z,101753.59
2022-08-26T23:20:26.809Z,101758.38
2022-08-26T23:22:54.144Z,101747.94
2022-08-26T23:25:21.894Z,101751.94
2022-08-26T23:27:52.012Z,101757.97
2022-08-26T23:30:25.545Z,101755.94
2022-08-26T23:32:52.299Z,101767.13
2022-08-26T23:35:21.502Z,101771.91
2022-08-26T23:37:53.686Z,101758.31
2022-08-26T23:40:25.513Z,101762.75
2022-08-26T23:42:54.146Z,101763.53
2022-08-26T23:45:22.161Z,101766.31
2022-08-26T23:47:52.316Z,101769.13
2022-08-26T23:50:22.748Z,101765.91
2022-08-26T23:53:08.985Z,101763.88
2022-08-26T23:55:37.281Z,101764.69
2022-08-26T23:58:05.464Z,101756.66
